Time;durP1;ratioP1;P1;durP2;ratioP2;P2;SDS_P1;SDS_P2;PMS_P1;PMS_P2;Temp;Humidity;BMP_temperature;BMP_pressure;BME280_temperature;BME280_humidity;BME280_pressure;Samples;Min_cycle;Max_cycle;Signal;HPM_P1;HPM_P2
2023/12/15 00:00:18;;;;;;;2.20;2.00;;;11.00;93.30;;;;;;4834493;29;20206;-85
2023/12/15 00:05:29;;;;;;;10.70;1.37;;;11.00;93.20;;;;;;4829438;29;20235;-85
2023/12/15 00:10:40;;;;;;;1.30;1.20;;;11.00;93.20;;;;;;4834367;29;20214;-85
2023/12/15 00:16:07;;;;;;;3.23;2.93;;;11.00;93.20;;;;;;4834505;29;20533;-84
2023/12/15 00:21:18;;;;;;;2.13;1.87;;;11.00;93.10;;;;;;4833038;29;20207;-81
2023/12/15 00:23:46;;;;;;;1.97;1.87;;;11.00;93.20;;;;;;4835606;29;20203;-83
2023/12/15 00:26:15;;;;;;;2.57;1.63;;;11.00;93.10;;;;;;4828116;29;20242;-82
2023/12/15 00:28:43;;;;;;;1.27;1.17;;;11.00;93.10;;;;;;4839325;29;20202;-82
2023/12/15 00:31:13;;;;;;;1.83;1.73;;;11.00;93.10;;;;;;4835460;29;20225;-80
2023/12/15 00:33:42;;;;;;;2.30;2.10;;;11.00;93.00;;;;;;4838427;29;20706;-81
2023/12/15 00:36:11;;;;;;;5.60;2.63;;;10.90;92.90;;;;;;4833659;29;20214;-83
2023/12/15 00:38:39;;;;;;;3.20;2.17;;;10.90;93.00;;;;;;4833682;29;20229;-85
2023/12/15 00:41:08;;;;;;;3.03;2.67;;;10.90;93.00;;;;;;4837141;29;20211;-83
2023/12/15 00:43:36;;;;;;;5.43;2.73;;;10.90;92.90;;;;;;4834054;29;20211;-84
2023/12/15 00:46:05;;;;;;;7.77;2.20;;;10.90;92.80;;;;;;4828790;29;20230;-82
2023/12/15 00:51:31;;;;;;;1.30;0.97;;;10.90;92.80;;;;;;4833682;29;20226;-81
2023/12/15 00:54:00;;;;;;;2.63;1.87;;;10.90;92.80;;;;;;4833803;29;20215;-80
2023/12/15 00:56:29;;;;;;;1.63;1.53;;;10.80;92.70;;;;;;4834609;29;20654;-81
2023/12/15 00:58:59;;;;;;;0.80;0.80;;;10.80;92.70;;;;;;4827141;29;20663;-81
2023/12/15 01:01:28;;;;;;;2.27;1.53;;;10.80;92.80;;;;;;4836841;29;20219;-81
2023/12/15 01:03:58;;;;;;;1.70;1.60;;;10.90;92.80;;;;;;4835052;29;20202;-80
2023/12/15 01:09:08;;;;;;;3.17;2.07;;;10.90;92.80;;;;;;4828685;29;20298;-80
2023/12/15 01:11:37;;;;;;;1.80;1.70;;;10.90;92.80;;;;;;4835509;29;20217;-83
2023/12/15 01:17:02;;;;;;;2.50;1.97;;;10.90;92.80;;;;;;4832923;29;20335;-81
2023/12/15 01:19:47;;;;;;;1.57;1.47;;;10.90;92.80;;;;;;4829450;29;20317;-80
2023/12/15 01:24:57;;;;;;;0.80;0.80;;;10.90;92.70;;;;;;4829701;29;20230;-81
2023/12/15 01:30:29;;;;;;;4.03;2.20;;;10.80;92.60;;;;;;4834845;29;20220;-81
2023/12/15 01:35:50;;;;;;;4.03;2.17;;;10.80;92.60;;;;;;4838112;29;20710;-79
2023/12/15 01:38:18;;;;;;;2.00;1.80;;;10.80;92.60;;;;;;4830846;29;20741;-80
2023/12/15 01:40:47;;;;;;;1.83;1.57;;;10.70;92.50;;;;;;4834096;29;20694;-82
2023/12/15 01:43:16;;;;;;;2.10;1.73;;;10.70;92.50;;;;;;4838397;29;20217;-82
2023/12/15 01:45:44;;;;;;;2.27;1.83;;;10.70;92.40;;;;;;4837809;29;20326;-81
2023/12/15 01:48:15;;;;;;;2.53;1.73;;;10.60;92.30;;;;;;4834484;29;20206;-84
2023/12/15 01:50:43;;;;;;;2.93;1.57;;;10.60;92.30;;;;;;4834044;29;20218;-80
2023/12/15 01:53:13;;;;;;;1.90;1.37;;;10.50;92.20;;;;;;4837155;29;20210;-81
2023/12/15 01:55:42;;;;;;;2.90;1.80;;;10.60;92.30;;;;;;4837605;29;20236;-81
2023/12/15 01:58:11;;;;;;;2.00;1.63;;;10.60;92.20;;;;;;4835593;29;20311;-83
2023/12/15 02:00:40;;;;;;;1.77;1.33;;;10.50;92.10;;;;;;4833840;29;20214;-82
2023/12/15 02:03:08;;;;;;;1.00;0.97;;;10.40;91.70;;;;;;4833550;29;20614;-83
2023/12/15 02:05:37;;;;;;;3.13;1.50;;;10.40;91.70;;;;;;4831398;29;20684;-82
2023/12/15 02:08:05;;;;;;;0.87;0.87;;;10.30;91.70;;;;;;4832347;29;20230;-82
2023/12/15 02:10:39;;;;;;;1.23;1.20;;;10.40;91.90;;;;;;4833565;29;20210;-81
2023/12/15 02:13:08;;;;;;;0.80;0.80;;;10.30;91.90;;;;;;4831032;29;20310;-82
2023/12/15 02:15:36;;;;;;;0.90;0.83;;;10.30;91.70;;;;;;4833666;29;20202;-83
2023/12/15 02:18:05;;;;;;;1.00;1.00;;;10.20;91.70;;;;;;4831715;29;20688;-81
2023/12/15 02:20:33;;;;;;;0.80;0.80;;;10.20;91.80;;;;;;4830858;29;20676;-82
2023/12/15 02:23:04;;;;;;;1.60;1.37;;;10.20;91.70;;;;;;4829821;29;20202;-82
2023/12/15 02:25:33;;;;;;;0.83;0.83;;;10.20;91.90;;;;;;4832250;29;20238;-82
2023/12/15 02:28:02;;;;;;;2.40;2.20;;;10.20;91.90;;;;;;4836579;29;20226;-83
2023/12/15 02:30:30;;;;;;;1.70;1.60;;;10.20;91.90;;;;;;4827921;29;20210;-81
2023/12/15 02:32:59;;;;;;;0.83;0.83;;;10.10;91.70;;;;;;4832607;29;20293;-82
2023/12/15 02:35:28;;;;;;;1.07;1.07;;;10.10;91.80;;;;;;4823228;29;20258;-81
2023/12/15 02:37:56;;;;;;;1.13;1.10;;;10.10;91.80;;;;;;4836234;29;20293;-81
2023/12/15 02:40:27;;;;;;;1.50;1.23;;;10.10;91.80;;;;;;4828805;29;20711;-82
2023/12/15 02:42:55;;;;;;;0.50;0.50;;;10.00;91.80;;;;;;4832258;29;20218;-81
2023/12/15 02:45:26;;;;;;;1.93;1.43;;;10.00;91.80;;;;;;4834177;29;20218;-81
2023/12/15 02:47:55;;;;;;;0.50;0.50;;;10.00;91.80;;;;;;4832725;29;20783;-81
2023/12/15 02:50:24;;;;;;;0.50;0.50;;;10.00;91.90;;;;;;4834150;29;20206;-82
2023/12/15 02:52:53;;;;;;;2.23;1.67;;;10.00;92.00;;;;;;4839910;29;20238;-82
2023/12/15 02:55:21;;;;;;;1.90;1.17;;;10.00;92.10;;;;;;4836085;29;20617;-82
2023/12/15 02:57:51;;;;;;;1.17;1.10;;;10.00;92.10;;;;;;4830956;29;20207;-83
2023/12/15 03:00:22;;;;;;;1.43;1.33;;;9.90;91.70;;;;;;4830706;29;20293;-82
2023/12/15 03:02:50;;;;;;;4.30;0.97;;;9.90;91.50;;;;;;4838285;29;20658;-84
2023/12/15 03:05:21;;;;;;;1.60;1.47;;;9.90;91.50;;;;;;4832384;29;20263;-81
2023/12/15 03:07:50;;;;;;;1.17;0.70;;;9.90;91.50;;;;;;4833140;29;20704;-81
2023/12/15 03:10:19;;;;;;;1.23;1.17;;;9.90;91.30;;;;;;4831786;29;20650;-82
2023/12/15 03:12:48;;;;;;;1.23;0.70;;;9.80;91.50;;;;;;4832860;29;20210;-81
2023/12/15 03:15:18;;;;;;;0.40;0.40;;;9.80;91.40;;;;;;4836383;29;20210;-81
2023/12/15 03:17:46;;;;;;;2.50;2.30;;;9.80;91.30;;;;;;4838525;29;20270;-81
2023/12/15 03:25:53;;;;;;;0.70;0.70;;;9.60;91.30;;;;;;4835524;29;20230;-82
2023/12/15 03:28:36;;;;;;;0.40;0.40;;;9.60;91.40;;;;;;4833908;29;20771;-82
2023/12/15 03:34:17;;;;;;;1.03;0.73;;;9.60;91.40;;;;;;4838769;29;20202;-82
2023/12/15 03:36:46;;;;;;;1.13;1.03;;;9.60;91.40;;;;;;4829329;29;20210;-82
2023/12/15 03:39:15;;;;;;;1.03;0.93;;;9.60;91.30;;;;;;4824955;29;20741;-83
2023/12/15 03:44:40;;;;;;;0.97;0.97;;;9.70;91.30;;;;;;4838277;29;20298;-81
2023/12/15 03:47:09;;;;;;;2.77;1.70;;;9.60;91.20;;;;;;4832007;29;20226;-82
2023/12/15 03:49:39;;;;;;;1.60;1.30;;;9.60;91.10;;;;;;4832398;29;20204;-83
2023/12/15 03:52:07;;;;;;;1.43;1.23;;;9.50;91.20;;;;;;4836038;29;20210;-84
2023/12/15 03:54:36;;;;;;;0.63;0.63;;;9.50;91.20;;;;;;4826748;29;20225;-84
2023/12/15 03:57:04;;;;;;;1.77;1.30;;;9.60;91.30;;;;;;4834291;29;20208;-82
2023/12/15 03:59:33;;;;;;;1.43;1.33;;;9.50;91.20;;;;;;4835946;29;20219;-82
2023/12/15 04:02:02;;;;;;;0.60;0.60;;;9.50;91.20;;;;;;4830388;29;20203;-82
2023/12/15 04:04:30;;;;;;;0.80;0.63;;;9.50;91.20;;;;;;4829494;29;20279;-82
2023/12/15 04:07:00;;;;;;;0.73;0.53;;;9.50;91.30;;;;;;4832687;29;20203;-83
2023/12/15 04:09:29;;;;;;;1.03;1.03;;;9.50;91.30;;;;;;4834421;29;20203;-82
2023/12/15 04:11:58;;;;;;;0.77;0.77;;;9.50;91.30;;;;;;4837489;29;20665;-81
2023/12/15 04:14:26;;;;;;;2.23;2.03;;;9.40;91.30;;;;;;4834470;29;20291;-81
2023/12/15 04:16:55;;;;;;;1.23;1.00;;;9.40;91.30;;;;;;4833586;29;20237;-79
2023/12/15 04:19:23;;;;;;;0.90;0.90;;;9.40;91.30;;;;;;4834929;29;20210;-83
2023/12/15 04:21:52;;;;;;;0.70;0.70;;;9.30;91.30;;;;;;4833612;29;20297;-80
2023/12/15 04:24:22;;;;;;;0.90;0.90;;;9.30;91.30;;;;;;4829611;29;20249;-82
2023/12/15 04:26:50;;;;;;;0.40;0.40;;;9.30;91.30;;;;;;4831885;29;20237;-82
2023/12/15 04:29:19;;;;;;;0.70;0.70;;;9.30;91.40;;;;;;4836847;29;20227;-82
2023/12/15 04:31:47;;;;;;;0.77;0.77;;;9.30;91.40;;;;;;4832595;29;20229;-81
2023/12/15 04:34:16;;;;;;;0.97;0.93;;;9.30;91.40;;;;;;4831136;29;20706;-81
2023/12/15 04:36:45;;;;;;;0.80;0.80;;;9.20;91.60;;;;;;4829555;29;20199;-80
2023/12/15 04:39:13;;;;;;;0.53;0.50;;;9.20;91.60;;;;;;4833244;29;20214;-80
2023/12/15 04:41:43;;;;;;;1.60;0.70;;;9.20;91.60;;;;;;4832249;29;20228;-81
2023/12/15 04:44:11;;;;;;;1.47;1.20;;;9.10;91.50;;;;;;4835512;29;20574;-81
2023/12/15 04:46:41;;;;;;;0.93;0.93;;;9.10;91.50;;;;;;4830780;29;20692;-82
2023/12/15 04:49:09;;;;;;;0.53;0.53;;;9.10;91.70;;;;;;4834097;29;20252;-82
2023/12/15 04:51:37;;;;;;;3.17;1.87;;;9.10;91.70;;;;;;4835577;29;20215;-81
2023/12/15 04:54:06;;;;;;;0.93;0.93;;;9.00;91.70;;;;;;4834320;29;20215;-82
2023/12/15 04:56:35;;;;;;;2.20;1.10;;;9.00;91.70;;;;;;4825582;29;20210;-81
2023/12/15 04:59:05;;;;;;;1.37;1.27;;;9.00;91.70;;;;;;4828532;29;20274;-82
2023/12/15 05:01:33;;;;;;;2.37;1.20;;;9.00;91.70;;;;;;4832458;29;20326;-83
2023/12/15 05:04:02;;;;;;;0.97;0.97;;;9.00;91.90;;;;;;4833473;29;20238;-82
2023/12/15 05:09:14;;;;;;;1.73;1.20;;;9.00;91.80;;;;;;4829342;29;20712;-83
2023/12/15 05:11:42;;;;;;;1.00;0.83;;;9.10;91.90;;;;;;4838771;29;20628;-82
2023/12/15 05:14:12;;;;;;;2.27;1.30;;;9.10;91.90;;;;;;4832250;29;20688;-82
2023/12/15 05:16:41;;;;;;;1.00;0.90;;;9.00;91.80;;;;;;4834567;29;20271;-81
2023/12/15 05:19:09;;;;;;;1.63;1.53;;;9.00;91.80;;;;;;4840977;29;20593;-81
2023/12/15 05:21:38;;;;;;;2.77;1.93;;;9.00;91.80;;;;;;4831442;29;20230;-82
2023/12/15 05:24:07;;;;;;;2.50;1.67;;;9.00;91.80;;;;;;4833161;29;20302;-82
2023/12/15 05:26:35;;;;;;;1.93;1.43;;;9.00;92.20;;;;;;4831265;29;20231;-81
2023/12/15 05:29:19;;;;;;;0.60;0.60;;;9.00;92.10;;;;;;4825509;29;20607;-81
2023/12/15 05:31:47;;;;;;;1.80;0.90;;;9.00;92.10;;;;;;4836702;29;20214;-81
2023/12/15 05:34:15;;;;;;;1.27;1.17;;;9.00;92.20;;;;;;4831230;29;20659;-80
2023/12/15 05:36:44;;;;;;;1.07;0.83;;;9.00;92.20;;;;;;4830992;29;20209;-82
2023/12/15 05:39:14;;;;;;;1.37;1.27;;;9.00;92.20;;;;;;4840278;29;20289;-82
2023/12/15 05:41:43;;;;;;;1.20;1.13;;;9.00;92.30;;;;;;4840292;29;20210;-82
2023/12/15 05:46:56;;;;;;;1.57;1.20;;;9.00;92.40;;;;;;4835585;29;20210;-85
2023/12/15 05:49:25;;;;;;;1.50;0.97;;;9.10;92.50;;;;;;4830219;29;20264;-83
2023/12/15 05:57:17;;;;;;;1.93;1.10;;;9.00;92.40;;;;;;4835313;29;20202;-82
2023/12/15 05:59:46;;;;;;;2.13;1.87;;;9.00;92.40;;;;;;4838103;29;20213;-81
2023/12/15 06:10:23;;;;;;;2.67;2.47;;;9.00;92.40;;;;;;4835634;29;20246;-82
2023/12/15 06:15:47;;;;;;;2.30;2.10;;;9.00;92.40;;;;;;4836696;29;20232;-85
2023/12/15 06:18:30;;;;;;;1.43;1.33;;;9.10;92.50;;;;;;4836241;29;20206;-83
2023/12/15 06:20:59;;;;;;;1.73;1.23;;;9.10;92.50;;;;;;4841969;29;20202;-82
2023/12/15 06:23:27;;;;;;;1.77;1.67;;;9.10;92.40;;;;;;4838456;29;20218;-83
2023/12/15 06:25:56;;;;;;;1.27;1.17;;;9.10;92.30;;;;;;4841827;29;20754;-84
2023/12/15 06:28:24;;;;;;;1.43;1.33;;;9.10;92.30;;;;;;4841922;29;20730;-85
2023/12/15 06:30:52;;;;;;;0.73;0.73;;;9.20;92.30;;;;;;4835620;29;20201;-87
2023/12/15 06:33:21;;;;;;;1.30;0.97;;;9.10;92.20;;;;;;4841064;29;20213;-84
2023/12/15 06:35:51;;;;;;;2.20;0.93;;;9.20;92.20;;;;;;4832343;29;20547;-84
2023/12/15 06:38:19;;;;;;;0.73;0.73;;;9.20;92.20;;;;;;4840717;29;20213;-84
2023/12/15 06:40:48;;;;;;;5.17;1.53;;;9.20;92.10;;;;;;4837699;29;20273;-86
2023/12/15 06:43:16;;;;;;;1.70;1.60;;;9.20;92.10;;;;;;4835427;29;20210;-83
2023/12/15 06:45:45;;;;;;;2.03;1.90;;;9.20;92.10;;;;;;4841989;29;23252;-84
2023/12/15 06:48:13;;;;;;;4.30;1.33;;;9.20;92.00;;;;;;4840662;29;20205;-83
2023/12/15 06:50:42;;;;;;;3.20;1.97;;;9.20;92.00;;;;;;4838121;29;20231;-84
2023/12/15 06:53:11;;;;;;;0.87;0.87;;;9.20;92.00;;;;;;4833978;29;20214;-82
2023/12/15 06:55:41;;;;;;;1.10;1.03;;;9.20;91.90;;;;;;4826232;29;20207;-82
2023/12/15 06:58:09;;;;;;;1.83;1.73;;;9.20;92.30;;;;;;4834400;29;20665;-82
2023/12/15 07:00:37;;;;;;;4.43;1.00;;;9.20;91.90;;;;;;4840722;29;20206;-84
2023/12/15 07:03:06;;;;;;;2.27;2.07;;;9.20;91.90;;;;;;4830106;29;20554;-83
2023/12/15 07:05:34;;;;;;;2.37;2.17;;;9.30;91.90;;;;;;4833811;29;20203;-82
2023/12/15 07:08:03;;;;;;;2.60;2.40;;;9.20;91.80;;;;;;4835587;29;20564;-82
2023/12/15 07:10:33;;;;;;;2.40;2.20;;;9.20;91.80;;;;;;4838917;29;20392;-83
2023/12/15 07:13:02;;;;;;;1.57;1.43;;;9.30;91.70;;;;;;4838688;29;20202;-83
2023/12/15 07:18:12;;;;;;;3.37;1.33;;;9.30;91.70;;;;;;4829630;29;20202;-82
2023/12/15 07:20:40;;;;;;;0.93;0.93;;;9.30;91.60;;;;;;4828455;29;20259;-82
2023/12/15 07:23:09;;;;;;;0.80;0.80;;;9.30;91.70;;;;;;4834146;29;20203;-82
2023/12/15 07:29:03;;;;;;;1.70;1.17;;;9.30;91.40;;;;;;4833565;29;20249;-81
2023/12/15 07:31:32;;;;;;;3.00;1.80;;;9.30;91.40;;;;;;4833749;29;20629;-83
2023/12/15 07:34:00;;;;;;;9.33;1.73;;;9.40;91.30;;;;;;4832068;29;20194;-84
2023/12/15 07:36:29;;;;;;;0.77;0.63;;;9.30;91.30;;;;;;4820622;29;20210;-85
2023/12/15 07:38:57;;;;;;;2.10;0.90;;;9.40;91.30;;;;;;4839941;29;20203;-84
2023/12/15 07:41:55;;;;;;;2.97;2.70;;;9.40;91.20;;;;;;4830085;29;20206;-83
2023/12/15 07:44:23;;;;;;;0.93;0.87;;;9.40;91.20;;;;;;4840260;29;20207;-84
2023/12/15 07:46:53;;;;;;;0.97;0.97;;;9.40;91.20;;;;;;4831403;29;20206;-84
2023/12/15 07:49:22;;;;;;;1.23;1.03;;;9.40;91.10;;;;;;4834344;29;20234;-84
2023/12/15 07:51:54;;;;;;;0.80;0.80;;;9.40;90.90;;;;;;4833636;29;20215;-85
2023/12/15 07:54:23;;;;;;;0.67;0.67;;;9.50;91.00;;;;;;4836925;29;20675;-84
2023/12/15 07:56:51;;;;;;;0.70;0.70;;;9.50;90.90;;;;;;4835889;29;20214;-85
2023/12/15 07:59:21;;;;;;;0.40;0.40;;;9.50;90.70;;;;;;4833564;29;20211;-84
2023/12/15 08:01:55;;;;;;;0.93;0.90;;;9.50;90.60;;;;;;4837326;29;20553;-86
2023/12/15 08:04:23;;;;;;;0.73;0.73;;;9.40;90.50;;;;;;4836254;29;20218;-85
2023/12/15 08:06:52;;;;;;;1.07;0.97;;;9.50;90.60;;;;;;4829403;29;20666;-85
2023/12/15 08:09:20;;;;;;;0.87;0.87;;;9.50;90.60;;;;;;4833434;29;20242;-85
2023/12/15 08:11:49;;;;;;;2.20;1.40;;;9.50;90.60;;;;;;4834977;29;20203;-85
2023/12/15 08:14:17;;;;;;;1.43;1.33;;;9.50;90.60;;;;;;4829233;29;20206;-85
2023/12/15 08:16:47;;;;;;;2.47;2.27;;;9.50;90.50;;;;;;4832804;29;20652;-85
2023/12/15 08:19:15;;;;;;;0.90;0.90;;;9.50;90.40;;;;;;4836652;29;20895;-85
2023/12/15 08:21:44;;;;;;;0.77;0.77;;;9.50;90.40;;;;;;4827807;29;20202;-87
2023/12/15 08:24:15;;;;;;;1.20;1.10;;;9.50;90.30;;;;;;4831885;29;20321;-86
2023/12/15 08:26:43;;;;;;;1.30;1.20;;;9.50;90.20;;;;;;4837972;29;20234;-85
2023/12/15 08:29:12;;;;;;;2.20;1.63;;;9.40;90.10;;;;;;4834872;29;20231;-88
2023/12/15 08:31:41;;;;;;;0.93;0.90;;;9.40;90.00;;;;;;4839278;29;20504;-87
2023/12/15 08:34:10;;;;;;;1.00;0.87;;;9.40;90.30;;;;;;4838593;29;20206;-86
2023/12/15 08:36:39;;;;;;;3.33;1.57;;;9.50;90.30;;;;;;4833809;29;20679;-88
2023/12/15 08:39:07;;;;;;;1.07;0.77;;;9.50;90.30;;;;;;4840762;29;20222;-87
2023/12/15 08:41:35;;;;;;;2.80;2.40;;;9.50;90.30;;;;;;4836973;29;20305;-88
2023/12/15 08:44:04;;;;;;;0.83;0.83;;;9.50;90.20;;;;;;4840645;29;20923;-87
2023/12/15 08:46:36;;;;;;;1.57;1.47;;;9.50;90.10;;;;;;4839391;29;20673;-89
2023/12/15 08:49:07;;;;;;;2.13;1.40;;;9.50;90.00;;;;;;4831605;29;20953;-88
2023/12/15 08:51:37;;;;;;;1.73;1.23;;;9.50;90.40;;;;;;4838706;29;20226;-88
2023/12/15 08:54:06;;;;;;;1.00;1.00;;;9.50;90.40;;;;;;4838714;29;20735;-89
2023/12/15 08:56:34;;;;;;;2.73;1.90;;;9.50;90.10;;;;;;4833321;29;20310;-86
2023/12/15 08:59:03;;;;;;;2.10;1.80;;;9.50;89.70;;;;;;4838996;29;20657;-88
2023/12/15 09:01:33;;;;;;;1.67;1.57;;;9.50;89.60;;;;;;4837671;29;20245;-87
2023/12/15 09:04:01;;;;;;;2.93;2.00;;;9.60;89.70;;;;;;4835010;29;20238;-87
2023/12/15 09:06:30;;;;;;;0.67;0.67;;;9.60;89.60;;;;;;4838183;29;20573;-88
2023/12/15 09:09:07;;;;;;;5.40;1.73;;;9.50;89.60;;;;;;4829403;29;20233;-91
2023/12/15 09:11:36;;;;;;;1.13;1.03;;;9.60;89.50;;;;;;4836335;29;20226;-91
2023/12/15 09:14:05;;;;;;;1.17;1.17;;;9.50;88.70;;;;;;4835878;29;20263;-91
2023/12/15 09:16:33;;;;;;;2.23;1.30;;;9.60;89.20;;;;;;4836871;29;20281;-92
2023/12/15 09:19:02;;;;;;;1.33;1.27;;;9.60;89.20;;;;;;4839504;29;20209;-90
2023/12/15 09:21:31;;;;;;;1.37;1.27;;;9.60;89.20;;;;;;4839053;29;20206;-88
2023/12/15 09:23:59;;;;;;;2.90;2.10;;;9.60;89.20;;;;;;4834482;29;20219;-88
2023/12/15 09:26:29;;;;;;;2.37;1.87;;;9.60;89.20;;;;;;4827020;29;20231;-89
2023/12/15 09:28:57;;;;;;;1.23;1.13;;;9.60;88.80;;;;;;4835856;29;20293;-88
2023/12/15 09:31:26;;;;;;;1.30;1.17;;;9.60;88.80;;;;;;4837941;29;20234;-89
2023/12/15 09:33:54;;;;;;;2.00;1.60;;;9.60;88.80;;;;;;4838431;29;20653;-87
2023/12/15 09:36:24;;;;;;;1.10;1.00;;;9.70;89.90;;;;;;4833952;29;20206;-86
2023/12/15 09:38:52;;;;;;;2.93;1.97;;;9.70;89.00;;;;;;4830284;29;20213;-88
2023/12/15 09:41:21;;;;;;;1.70;0.93;;;9.70;88.80;;;;;;4830449;29;20543;-87
2023/12/15 09:43:51;;;;;;;1.03;1.03;;;9.70;88.60;;;;;;4836371;29;20256;-87
2023/12/15 09:46:22;;;;;;;0.70;0.70;;;9.70;88.60;;;;;;4835531;29;20234;-87
2023/12/15 09:48:52;;;;;;;3.83;2.23;;;9.70;88.60;;;;;;4833933;29;20331;-86
2023/12/15 09:51:24;;;;;;;1.27;1.08;;;9.70;88.10;;;;;;4834149;29;20471;-85
2023/12/15 09:53:53;;;;;;;1.20;1.10;;;9.70;88.90;;;;;;4839133;29;20245;-89
2023/12/15 09:56:22;;;;;;;1.30;1.20;;;9.70;88.80;;;;;;4840960;29;20218;-89
2023/12/15 09:58:53;;;;;;;1.20;1.00;;;9.70;88.40;;;;;;4831655;29;20705;-88
2023/12/15 10:01:22;;;;;;;2.03;1.77;;;9.70;88.30;;;;;;4842289;29;20214;-89
2023/12/15 10:03:50;;;;;;;0.87;0.87;;;9.70;88.10;;;;;;4846600;29;20206;-90
2023/12/15 10:06:20;;;;;;;1.90;1.57;;;9.70;88.20;;;;;;4848585;29;20354;-91
2023/12/15 10:08:49;;;;;;;1.73;1.63;;;9.80;88.40;;;;;;4855325;29;20231;-89
2023/12/15 10:11:33;;;;;;;1.27;1.07;;;9.80;88.40;;;;;;4848926;29;20278;-89
2023/12/15 10:14:19;;;;;;;1.27;1.17;;;9.80;88.80;;;;;;4856418;29;20201;-91
2023/12/15 10:16:48;;;;;;;1.37;1.27;;;9.80;87.80;;;;;;4850277;29;20214;-89
2023/12/15 10:19:19;;;;;;;1.23;1.13;;;9.80;87.70;;;;;;4856254;29;20684;-90
2023/12/15 10:21:48;;;;;;;0.70;0.70;;;9.80;87.50;;;;;;4851851;29;20235;-89
2023/12/15 10:24:22;;;;;;;0.60;0.60;;;9.80;87.50;;;;;;4845234;29;20783;-90
2023/12/15 10:29:48;;;;;;;1.00;1.00;;;9.80;87.40;;;;;;4841583;29;20205;-90
2023/12/15 10:32:18;;;;;;;1.53;0.90;;;9.80;87.50;;;;;;4839919;29;20222;-88
2023/12/15 10:34:47;;;;;;;1.70;1.60;;;9.80;87.70;;;;;;4837949;29;20206;-91
2023/12/15 10:37:16;;;;;;;6.10;0.90;;;9.80;87.80;;;;;;4842357;29;20199;-90
2023/12/15 10:40:00;;;;;;;0.80;0.80;;;9.80;87.10;;;;;;4836683;29;20207;-89
2023/12/15 10:42:33;;;;;;;1.00;0.97;;;9.80;87.40;;;;;;4837807;29;20298;-89
2023/12/15 10:45:04;;;;;;;1.23;1.13;;;9.90;87.70;;;;;;4841374;29;20217;-90
2023/12/15 10:47:34;;;;;;;1.27;1.13;;;9.90;87.60;;;;;;4835422;29;20268;-89
2023/12/15 10:50:03;;;;;;;0.90;0.90;;;10.00;87.70;;;;;;4844856;29;20202;-89
2023/12/15 10:52:35;;;;;;;1.27;0.73;;;10.00;87.60;;;;;;4837624;29;20389;-90
2023/12/15 10:55:06;;;;;;;1.23;1.13;;;10.00;87.70;;;;;;4840551;29;20215;-89
2023/12/15 10:57:35;;;;;;;1.93;0.93;;;10.00;87.70;;;;;;4832172;29;20290;-84
2023/12/15 11:00:07;;;;;;;1.50;0.97;;;10.00;87.60;;;;;;4833448;29;21491;-84
2023/12/15 11:02:39;;;;;;;0.40;0.40;;;10.00;87.20;;;;;;4830826;29;20253;-84
2023/12/15 11:05:09;;;;;;;0.73;0.73;;;10.10;87.10;;;;;;4841311;29;20570;-83
2023/12/15 11:07:40;;;;;;;1.93;1.53;;;10.10;86.90;;;;;;4842680;29;20207;-83
2023/12/15 11:10:12;;;;;;;1.70;1.23;;;10.10;87.00;;;;;;4835305;29;20785;-82
2023/12/15 11:12:41;;;;;;;2.30;1.23;;;10.10;87.00;;;;;;4840573;29;20622;-84
2023/12/15 11:15:13;;;;;;;1.03;0.93;;;10.10;86.90;;;;;;4842214;29;20599;-84
2023/12/15 11:17:44;;;;;;;4.60;1.93;;;10.10;86.90;;;;;;4841625;29;20215;-83
2023/12/15 11:20:34;;;;;;;0.83;0.83;;;10.10;86.10;;;;;;4834842;29;20648;-82
2023/12/15 11:23:08;;;;;;;1.30;1.20;;;10.10;86.20;;;;;;4829260;29;20211;-84
2023/12/15 11:25:38;;;;;;;0.93;0.93;;;10.10;86.40;;;;;;4837354;29;20253;-85
2023/12/15 11:28:09;;;;;;;1.77;1.67;;;10.20;86.30;;;;;;4837280;29;20722;-86
2023/12/15 11:30:41;;;;;;;2.33;1.90;;;10.20;86.10;;;;;;4806357;29;20319;-84
2023/12/15 11:33:44;;;;;;;0.90;0.90;;;10.20;85.80;;;;;;4817666;29;20227;-85
2023/12/15 11:36:15;;;;;;;1.67;1.57;;;10.20;85.80;;;;;;4817178;29;20202;-84
2023/12/15 11:38:48;;;;;;;1.40;1.30;;;10.20;85.40;;;;;;4819950;29;20207;-82
2023/12/15 11:41:22;;;;;;;1.53;1.43;;;10.20;85.40;;;;;;4818904;29;20217;-82
2023/12/15 11:43:52;;;;;;;1.20;1.10;;;10.20;85.90;;;;;;4817973;29;20305;-81
2023/12/15 11:46:24;;;;;;;0.73;0.73;;;10.20;85.50;;;;;;4817084;29;20218;-84
2023/12/15 11:48:53;;;;;;;1.80;1.20;;;10.20;85.40;;;;;;4813649;29;20207;-81
2023/12/15 11:51:25;;;;;;;2.77;1.33;;;10.20;85.40;;;;;;4819181;29;20664;-81
2023/12/15 11:53:54;;;;;;;1.70;1.40;;;10.20;85.20;;;;;;4817867;29;20214;-80
2023/12/15 11:56:22;;;;;;;1.23;1.13;;;10.20;84.30;;;;;;4822545;29;20215;-82
2023/12/15 11:58:50;;;;;;;1.40;0.97;;;10.20;84.50;;;;;;4817690;29;20286;-82
2023/12/15 12:01:20;;;;;;;0.70;0.70;;;10.20;84.70;;;;;;4820439;29;20211;-82
2023/12/15 12:03:49;;;;;;;0.63;0.63;;;10.20;85.00;;;;;;4815644;29;20214;-82
2023/12/15 12:06:21;;;;;;;7.17;2.50;;;10.30;84.90;;;;;;4816372;29;20233;-82
2023/12/15 12:08:50;;;;;;;0.83;0.83;;;10.20;84.60;;;;;;4819196;29;20217;-81
2023/12/15 12:11:18;;;;;;;2.53;1.00;;;10.30;84.90;;;;;;4815332;29;20207;-81
2023/12/15 12:13:48;;;;;;;1.80;1.53;;;10.30;84.70;;;;;;4822515;29;20211;-82
2023/12/15 12:21:43;;;;;;;1.20;0.87;;;10.30;85.00;;;;;;4811626;29;20206;-81
2023/12/15 12:26:54;;;;;;;1.63;1.53;;;10.30;85.20;;;;;;4816301;29;20227;-83
2023/12/15 12:29:23;;;;;;;0.90;0.90;;;10.40;85.10;;;;;;4817592;29;20654;-85
2023/12/15 12:31:52;;;;;;;2.00;0.60;;;10.40;85.20;;;;;;4824476;29;20231;-83
2023/12/15 12:34:22;;;;;;;1.00;0.90;;;10.40;84.90;;;;;;4820005;29;20223;-82
2023/12/15 12:36:50;;;;;;;1.43;1.33;;;10.40;84.70;;;;;;4815781;29;20203;-83
2023/12/15 12:39:23;;;;;;;0.60;0.60;;;10.40;85.70;;;;;;4816515;29;20282;-84
2023/12/15 12:41:52;;;;;;;0.73;0.73;;;10.40;84.80;;;;;;4811306;29;20237;-87
2023/12/15 12:44:20;;;;;;;1.20;1.10;;;10.40;84.90;;;;;;4820918;29;20617;-87
2023/12/15 12:46:49;;;;;;;0.80;0.80;;;10.50;85.10;;;;;;4822368;29;20210;-89
2023/12/15 12:49:17;;;;;;;2.57;1.53;;;10.50;84.50;;;;;;4818224;29;20224;-86
2023/12/15 12:51:47;;;;;;;0.93;0.93;;;10.50;84.60;;;;;;4816751;29;20673;-86
2023/12/15 12:54:16;;;;;;;1.07;0.93;;;10.50;84.50;;;;;;4814775;29;20204;-86
2023/12/15 12:56:44;;;;;;;1.67;1.57;;;10.50;84.50;;;;;;4814674;29;20294;-86
2023/12/15 12:59:27;;;;;;;1.63;1.00;;;10.50;84.60;;;;;;4812626;29;20631;-86
2023/12/15 13:01:55;;;;;;;1.00;0.90;;;10.50;84.90;;;;;;4814325;29;20206;-87
2023/12/15 13:04:42;;;;;;;0.50;0.50;;;10.50;84.80;;;;;;4816248;29;20704;-86
2023/12/15 13:07:12;;;;;;;1.63;1.53;;;10.50;84.90;;;;;;4819159;29;20214;-83
2023/12/15 13:09:41;;;;;;;4.77;0.97;;;10.50;84.80;;;;;;4821463;29;20211;-84
2023/12/15 13:12:13;;;;;;;1.83;0.80;;;10.50;84.40;;;;;;4812657;29;20617;-84
2023/12/15 13:14:41;;;;;;;0.60;0.57;;;10.50;84.60;;;;;;4809552;29;20662;-82
2023/12/15 13:17:10;;;;;;;0.60;0.60;;;10.50;84.70;;;;;;4815744;29;20690;-84
2023/12/15 13:19:38;;;;;;;1.90;1.43;;;10.50;84.70;;;;;;4819586;29;20571;-84
2023/12/15 13:22:07;;;;;;;0.53;0.53;;;10.50;84.50;;;;;;4820722;29;20298;-83
2023/12/15 13:24:37;;;;;;;0.90;0.80;;;10.50;85.40;;;;;;4817535;29;20242;-84
2023/12/15 13:27:21;;;;;;;0.70;0.70;;;10.50;84.80;;;;;;4814895;29;20235;-84
2023/12/15 13:29:50;;;;;;;1.90;0.90;;;10.50;85.00;;;;;;4814687;29;20207;-84
2023/12/15 13:32:19;;;;;;;1.33;1.07;;;10.60;85.10;;;;;;4818596;29;20265;-84
2023/12/15 13:34:47;;;;;;;1.53;1.43;;;10.60;84.90;;;;;;4815016;29;20734;-82
2023/12/15 13:37:16;;;;;;;1.47;1.37;;;10.60;84.90;;;;;;4819460;29;20260;-82
2023/12/15 13:39:46;;;;;;;1.77;1.07;;;10.50;85.70;;;;;;4820579;29;20211;-83
2023/12/15 13:42:14;;;;;;;1.90;0.90;;;10.50;85.00;;;;;;4814978;29;20701;-86
2023/12/15 13:44:43;;;;;;;1.83;1.73;;;10.50;85.00;;;;;;4821834;29;20208;-86
2023/12/15 13:47:12;;;;;;;1.87;1.13;;;10.40;85.10;;;;;;4823258;29;20211;-86
2023/12/15 13:49:40;;;;;;;2.43;1.47;;;10.40;85.20;;;;;;4821990;29;20211;-86
2023/12/15 13:52:15;;;;;;;4.17;2.03;;;10.40;85.50;;;;;;4818521;29;20207;-93
2023/12/15 13:54:44;;;;;;;7.63;3.07;;;10.40;85.50;;;;;;4819020;29;20762;-91
2023/12/15 13:57:14;;;;;;;2.37;2.03;;;10.40;85.50;;;;;;4822842;29;20302;-90
2023/12/15 13:59:42;;;;;;;3.50;1.80;;;10.40;85.50;;;;;;4816018;29;20208;-90
2023/12/15 14:02:11;;;;;;;1.03;1.00;;;10.40;85.70;;;;;;4818248;29;20596;-89
2023/12/15 14:04:40;;;;;;;2.80;1.27;;;10.40;85.70;;;;;;4821055;29;20203;-90
2023/12/15 14:07:08;;;;;;;2.30;1.20;;;10.40;86.40;;;;;;4820175;29;20284;-95
2023/12/15 14:09:37;;;;;;;0.80;0.80;;;10.40;86.50;;;;;;4819590;29;20233;-91
2023/12/15 14:12:06;;;;;;;3.20;1.57;;;10.40;85.60;;;;;;4822606;29;20211;-91
2023/12/15 14:14:36;;;;;;;0.50;0.50;;;10.40;85.80;;;;;;4814201;29;20609;-87
2023/12/15 14:20:01;;;;;;;1.03;0.93;;;10.40;85.90;;;;;;4828772;29;20247;-88
2023/12/15 14:22:33;;;;;;;1.38;1.20;;;10.40;85.90;;;;;;4823928;29;20493;-89
2023/12/15 14:25:04;;;;;;;1.73;1.57;;;10.40;86.10;;;;;;4820298;29;20646;-89
2023/12/15 14:27:33;;;;;;;1.40;1.30;;;10.40;86.10;;;;;;4824500;29;20231;-88